Time;durP1;ratioP1;P1;durP2;ratioP2;P2;SDS_P1;SDS_P2;PMS_P1;PMS_P2;Temp;Humidity;BMP_temperature;BMP_pressure;BME280_temperature;BME280_humidity;BME280_pressure;Samples;Min_cycle;Max_cycle;Signal;HPM_P1;HPM_P2
2022/08/16 00:00:22;;;;;;;12.25;7.63;;;;;;;;;;5044527;28;20053;-52
2022/08/16 00:02:48;;;;;;;7.80;6.03;;;;;;;;;;5034537;28;20076;-52
2022/08/16 00:05:16;;;;;;;9.52;7.35;;;;;;;;;;5046329;28;20140;-49
2022/08/16 00:07:44;;;;;;;9.13;7.00;;;;;;;;;;5054036;28;20174;-50
2022/08/16 00:10:12;;;;;;;14.15;8.52;;;;;;;;;;5054178;28;20565;-52
2022/08/16 00:12:40;;;;;;;11.85;8.07;;;;;;;;;;5054016;28;20059;-50
2022/08/16 00:15:10;;;;;;;8.77;6.80;;;;;;;;;;5054403;28;20053;-52
2022/08/16 00:17:37;;;;;;;12.25;8.02;;;;;;;;;;5054376;28;20052;-53
2022/08/16 00:20:07;;;;;;;12.10;8.32;;;;;;;;;;5055035;28;20049;-49
2022/08/16 00:22:36;;;;;;;11.52;7.25;;;;;;;;;;5054601;28;20056;-53
2022/08/16 00:25:03;;;;;;;11.68;7.57;;;;;;;;;;5054075;28;20119;-52
2022/08/16 00:27:30;;;;;;;15.60;8.32;;;;;;;;;;5054454;28;20143;-55
2022/08/16 00:29:57;;;;;;;11.07;7.90;;;;;;;;;;5053848;28;20056;-52
2022/08/16 00:32:24;;;;;;;10.65;7.80;;;;;;;;;;5054360;28;20072;-53
2022/08/16 00:34:51;;;;;;;9.43;7.05;;;;;;;;;;5053400;28;20044;-53
2022/08/16 00:37:19;;;;;;;12.10;8.68;;;;;;;;;;5053789;28;20052;-55
2022/08/16 00:39:48;;;;;;;14.00;8.63;;;;;;;;;;5046425;28;20442;-52
2022/08/16 00:42:18;;;;;;;11.07;8.85;;;;;;;;;;5034883;28;20077;-55
2022/08/16 00:44:53;;;;;;;9.63;7.35;;;;;;;;;;5035722;28;20049;-51
2022/08/16 00:47:22;;;;;;;11.65;7.43;;;;;;;;;;5053242;28;20053;-52
2022/08/16 00:49:48;;;;;;;9.63;7.68;;;;;;;;;;5053329;28;20051;-52
2022/08/16 00:52:16;;;;;;;8.65;6.85;;;;;;;;;;5053036;28;20071;-55
2022/08/16 00:54:46;;;;;;;13.23;8.02;;;;;;;;;;5052035;28;20494;-52
2022/08/16 00:57:24;;;;;;;11.25;8.07;;;;;;;;;;5052967;28;20048;-55
2022/08/16 00:59:53;;;;;;;8.73;6.85;;;;;;;;;;5053149;28;20073;-53
2022/08/16 01:02:20;;;;;;;14.52;9.13;;;;;;;;;;5034291;28;20057;-52
2022/08/16 01:04:47;;;;;;;12.77;8.93;;;;;;;;;;5033285;28;20049;-54
2022/08/16 01:07:14;;;;;;;9.70;7.57;;;;;;;;;;5033147;28;20087;-53
2022/08/16 01:09:45;;;;;;;14.85;9.90;;;;;;;;;;5050507;28;20048;-55
2022/08/16 01:12:15;;;;;;;11.30;7.80;;;;;;;;;;5053088;28;20139;-52
2022/08/16 01:14:47;;;;;;;13.48;8.35;;;;;;;;;;5055641;28;20358;-55
2022/08/16 01:17:20;;;;;;;10.20;7.70;;;;;;;;;;5056572;28;20060;-54
2022/08/16 01:19:48;;;;;;;11.65;7.95;;;;;;;;;;5057028;28;20045;-51
2022/08/16 01:22:19;;;;;;;11.77;7.53;;;;;;;;;;5057007;28;20049;-51
2022/08/16 01:24:54;;;;;;;10.13;7.40;;;;;;;;;;5056891;28;20049;-52
2022/08/16 01:27:27;;;;;;;9.52;7.57;;;;;;;;;;5056872;28;20056;-54
2022/08/16 01:29:58;;;;;;;12.07;7.57;;;;;;;;;;5056603;28;20057;-54
2022/08/16 01:32:29;;;;;;;10.27;7.03;;;;;;;;;;5056523;28;20388;-55
2022/08/16 01:34:58;;;;;;;11.30;8.13;;;;;;;;;;5056595;28;20049;-52
2022/08/16 01:37:27;;;;;;;12.40;8.98;;;;;;;;;;5056668;28;20063;-53
2022/08/16 01:40:00;;;;;;;11.05;7.60;;;;;;;;;;5056605;28;20126;-54
2022/08/16 01:42:26;;;;;;;12.38;7.55;;;;;;;;;;5056674;28;20057;-53
2022/08/16 01:44:55;;;;;;;11.93;8.15;;;;;;;;;;5053392;28;20046;-52
2022/08/16 01:47:23;;;;;;;12.32;7.93;;;;;;;;;;5051345;28;20056;-55
2022/08/16 01:49:49;;;;;;;11.65;8.48;;;;;;;;;;5056437;28;20048;-53
2022/08/16 01:52:19;;;;;;;15.18;8.85;;;;;;;;;;5049522;28;20476;-51
2022/08/16 01:54:50;;;;;;;10.40;7.90;;;;;;;;;;5055450;28;20049;-51
2022/08/16 01:57:22;;;;;;;11.45;8.10;;;;;;;;;;5056230;28;20122;-51
2022/08/16 01:59:48;;;;;;;14.68;8.52;;;;;;;;;;5056332;28;20049;-51
2022/08/16 02:02:17;;;;;;;13.25;8.75;;;;;;;;;;5037431;28;20049;-54
2022/08/16 02:04:47;;;;;;;16.05;8.93;;;;;;;;;;5043333;28;20071;-51
2022/08/16 02:07:17;;;;;;;12.95;8.65;;;;;;;;;;5056042;28;20128;-51
2022/08/16 02:09:48;;;;;;;15.02;10.32;;;;;;;;;;5055843;28;20077;-51
2022/08/16 02:12:15;;;;;;;21.92;11.98;;;;;;;;;;5056338;28;20052;-51
2022/08/16 02:14:55;;;;;;;11.13;8.48;;;;;;;;;;5056009;28;20088;-54
2022/08/16 02:17:24;;;;;;;12.48;8.98;;;;;;;;;;5055511;28;20496;-52
2022/08/16 02:19:51;;;;;;;12.73;8.98;;;;;;;;;;5055914;28;20041;-52
2022/08/16 02:22:20;;;;;;;12.10;7.97;;;;;;;;;;5055257;28;20091;-54
2022/08/16 02:24:47;;;;;;;13.10;8.15;;;;;;;;;;5054429;28;20401;-54
2022/08/16 02:27:14;;;;;;;13.18;8.65;;;;;;;;;;5055100;28;20049;-54
2022/08/16 02:29:44;;;;;;;12.55;9.52;;;;;;;;;;5055153;28;20143;-53
2022/08/16 02:32:19;;;;;;;9.95;7.25;;;;;;;;;;5055809;28;20052;-52
2022/08/16 02:34:52;;;;;;;11.18;8.27;;;;;;;;;;5055034;28;20679;-54
2022/08/16 02:37:19;;;;;;;12.43;7.95;;;;;;;;;;5055360;28;20102;-51
2022/08/16 02:39:49;;;;;;;11.95;7.80;;;;;;;;;;5054850;28;20045;-52
2022/08/16 02:42:18;;;;;;;13.40;8.95;;;;;;;;;;5055251;28;20048;-55
2022/08/16 02:44:48;;;;;;;11.18;7.15;;;;;;;;;;5055070;28;20485;-54
2022/08/16 02:47:22;;;;;;;10.23;8.02;;;;;;;;;;5055098;28;20095;-51
2022/08/16 02:49:59;;;;;;;12.63;6.88;;;;;;;;;;5055598;28;20095;-51
2022/08/16 02:52:29;;;;;;;13.77;8.65;;;;;;;;;;5055289;28;20052;-53
2022/08/16 02:55:05;;;;;;;11.82;7.68;;;;;;;;;;5055401;28;20495;-54
2022/08/16 02:57:32;;;;;;;10.00;7.43;;;;;;;;;;5055225;28;20049;-54
2022/08/16 02:59:59;;;;;;;10.75;7.78;;;;;;;;;;5054855;28;20076;-54
2022/08/16 03:02:29;;;;;;;14.10;9.60;;;;;;;;;;5054626;28;20627;-54
2022/08/16 03:04:57;;;;;;;11.32;8.27;;;;;;;;;;5054610;28;20400;-52
2022/08/16 03:07:32;;;;;;;12.60;8.27;;;;;;;;;;5054591;28;20404;-53
2022/08/16 03:10:00;;;;;;;12.07;7.93;;;;;;;;;;5034418;28;20095;-52
2022/08/16 03:12:27;;;;;;;9.73;7.15;;;;;;;;;;5034306;28;20508;-52
2022/08/16 03:14:57;;;;;;;11.35;8.45;;;;;;;;;;5034746;28;20164;-52
2022/08/16 03:17:26;;;;;;;12.43;8.05;;;;;;;;;;5053665;28;20049;-54
2022/08/16 03:20:09;;;;;;;10.45;7.72;;;;;;;;;;5054569;28;20045;-51
2022/08/16 03:22:38;;;;;;;9.13;6.85;;;;;;;;;;5054805;28;20055;-50
2022/08/16 03:25:10;;;;;;;12.23;8.40;;;;;;;;;;5054629;28;20113;-51
2022/08/16 03:27:45;;;;;;;8.48;6.47;;;;;;;;;;5054583;28;20072;-50
2022/08/16 03:30:20;;;;;;;10.85;7.32;;;;;;;;;;5053889;28;20060;-51
2022/08/16 03:32:49;;;;;;;13.13;7.93;;;;;;;;;;5054459;28;20487;-54
2022/08/16 03:35:23;;;;;;;11.55;7.88;;;;;;;;;;5054426;28;20057;-53
2022/08/16 03:37:55;;;;;;;14.65;8.77;;;;;;;;;;5054160;28;20049;-52
2022/08/16 03:40:25;;;;;;;15.18;9.23;;;;;;;;;;5054456;28;20052;-51
2022/08/16 03:42:55;;;;;;;10.45;8.13;;;;;;;;;;5053450;28;20129;-54
2022/08/16 03:45:22;;;;;;;11.80;8.13;;;;;;;;;;5054011;28;20092;-54
2022/08/16 03:47:51;;;;;;;14.75;10.00;;;;;;;;;;5053784;28;20052;-54
2022/08/16 03:50:27;;;;;;;16.17;10.23;;;;;;;;;;5054030;28;20470;-55
2022/08/16 03:52:57;;;;;;;11.32;8.43;;;;;;;;;;5053882;28;20132;-55
2022/08/16 03:55:27;;;;;;;11.50;8.02;;;;;;;;;;5054296;28;20114;-54
2022/08/16 03:57:57;;;;;;;10.85;8.20;;;;;;;;;;5053546;28;20097;-53
2022/08/16 04:00:27;;;;;;;12.07;8.77;;;;;;;;;;5053897;28;20053;-54
2022/08/16 04:02:56;;;;;;;12.05;8.38;;;;;;;;;;5053548;28;20088;-54
2022/08/16 04:05:29;;;;;;;11.07;8.35;;;;;;;;;;5053615;28;20126;-51
2022/08/16 04:07:56;;;;;;;10.20;7.70;;;;;;;;;;5053565;28;20053;-54
2022/08/16 04:10:24;;;;;;;11.98;8.25;;;;;;;;;;5048698;28;20454;-55
2022/08/16 04:12:52;;;;;;;12.65;9.00;;;;;;;;;;5053087;28;20470;-53
2022/08/16 04:15:20;;;;;;;13.60;8.40;;;;;;;;;;5053046;28;20068;-54
2022/08/16 04:17:49;;;;;;;12.65;8.90;;;;;;;;;;5052339;28;20053;-53
2022/08/16 04:20:18;;;;;;;12.30;8.65;;;;;;;;;;5053583;28;20134;-52
2022/08/16 04:22:47;;;;;;;12.00;8.25;;;;;;;;;;5053297;28;20059;-54
2022/08/16 04:25:17;;;;;;;11.60;8.15;;;;;;;;;;5053407;28;20053;-52
2022/08/16 04:27:45;;;;;;;10.25;7.97;;;;;;;;;;5053511;28;20135;-54
2022/08/16 04:30:17;;;;;;;11.57;7.85;;;;;;;;;;5052730;28;20093;-54
2022/08/16 04:32:46;;;;;;;9.70;7.47;;;;;;;;;;5053629;28;20417;-51
2022/08/16 04:35:17;;;;;;;14.45;9.40;;;;;;;;;;5053476;28;20063;-52
2022/08/16 04:37:44;;;;;;;9.88;7.93;;;;;;;;;;5053469;28;20060;-53
2022/08/16 04:40:16;;;;;;;15.60;8.27;;;;;;;;;;5053369;28;20057;-53
2022/08/16 04:42:44;;;;;;;11.68;8.48;;;;;;;;;;5053515;28;20073;-55
2022/08/16 04:45:13;;;;;;;11.77;8.20;;;;;;;;;;5052756;28;20048;-50
2022/08/16 04:47:41;;;;;;;16.70;9.93;;;;;;;;;;5053011;28;20045;-49
2022/08/16 04:50:09;;;;;;;17.80;9.57;;;;;;;;;;5053119;28;20055;-48
2022/08/16 04:52:37;;;;;;;13.05;8.38;;;;;;;;;;5052686;28;20366;-49
2022/08/16 04:55:05;;;;;;;21.92;9.25;;;;;;;;;;5053240;28;20056;-51
2022/08/16 04:57:34;;;;;;;11.63;9.35;;;;;;;;;;5052305;28;20135;-48
2022/08/16 05:00:02;;;;;;;15.77;9.88;;;;;;;;;;5052881;28;20048;-51
2022/08/16 05:02:32;;;;;;;11.18;8.15;;;;;;;;;;5052856;28;20127;-48
2022/08/16 05:05:03;;;;;;;12.68;9.02;;;;;;;;;;5052903;28;20056;-49
2022/08/16 05:07:30;;;;;;;12.95;9.13;;;;;;;;;;5053060;28;20060;-48
2022/08/16 05:09:58;;;;;;;14.75;10.02;;;;;;;;;;5052452;28;20489;-47
2022/08/16 05:12:27;;;;;;;12.10;9.43;;;;;;;;;;5052910;28;20056;-48
2022/08/16 05:14:57;;;;;;;11.27;9.13;;;;;;;;;;5052720;28;20049;-48
2022/08/16 05:17:25;;;;;;;12.98;9.15;;;;;;;;;;5052658;28;20106;-50
2022/08/16 05:19:55;;;;;;;14.52;9.38;;;;;;;;;;5052979;28;20052;-48
2022/08/16 05:22:24;;;;;;;13.75;9.27;;;;;;;;;;5053049;28;20505;-49
2022/08/16 05:24:52;;;;;;;11.07;7.78;;;;;;;;;;5052923;28;20067;-48
2022/08/16 05:27:21;;;;;;;11.77;8.57;;;;;;;;;;5052922;28;20135;-51
2022/08/16 05:29:48;;;;;;;15.38;10.00;;;;;;;;;;5052221;28;20382;-48
2022/08/16 05:32:19;;;;;;;12.00;9.40;;;;;;;;;;5052633;28;20055;-51
2022/08/16 05:34:46;;;;;;;10.23;8.95;;;;;;;;;;5052818;28;20136;-48
2022/08/16 05:37:14;;;;;;;13.02;9.63;;;;;;;;;;5052635;28;20053;-48
2022/08/16 05:39:42;;;;;;;12.68;10.05;;;;;;;;;;5052353;28;20075;-50
2022/08/16 05:42:09;;;;;;;12.52;9.85;;;;;;;;;;5052318;28;20110;-51
2022/08/16 05:44:39;;;;;;;10.82;8.40;;;;;;;;;;5052542;28;20056;-48
2022/08/16 05:47:06;;;;;;;15.02;9.90;;;;;;;;;;5052213;28;20045;-49
2022/08/16 05:49:48;;;;;;;12.80;8.45;;;;;;;;;;5052321;28;20389;-48
2022/08/16 05:52:27;;;;;;;13.85;7.82;;;;;;;;;;5040305;28;20052;-49
2022/08/16 05:54:58;;;;;;;11.68;8.27;;;;;;;;;;5052121;28;20537;-50
2022/08/16 05:57:28;;;;;;;10.38;8.48;;;;;;;;;;5046742;28;20049;-52
2022/08/16 05:59:55;;;;;;;13.88;9.15;;;;;;;;;;5046664;28;20567;-50
2022/08/16 06:02:26;;;;;;;15.40;9.93;;;;;;;;;;5053015;28;20434;-48
2022/08/16 06:05:08;;;;;;;12.35;9.40;;;;;;;;;;5055816;28;20489;-49
2022/08/16 06:07:38;;;;;;;13.18;9.27;;;;;;;;;;5056088;28;20053;-50
2022/08/16 06:10:08;;;;;;;15.48;9.70;;;;;;;;;;5036801;28;20061;-48
2022/08/16 06:12:39;;;;;;;11.82;9.90;;;;;;;;;;5036121;28;20087;-49
2022/08/16 06:15:06;;;;;;;17.25;10.95;;;;;;;;;;5036175;28;20049;-48
2022/08/16 06:17:35;;;;;;;12.05;9.52;;;;;;;;;;5052781;28;20415;-49
2022/08/16 06:20:08;;;;;;;16.33;10.77;;;;;;;;;;5055888;28;20053;-50
2022/08/16 06:22:44;;;;;;;13.10;10.70;;;;;;;;;;5055734;28;20086;-49
2022/08/16 06:25:13;;;;;;;14.65;10.15;;;;;;;;;;5055475;28;20092;-48
2022/08/16 06:27:41;;;;;;;13.52;9.63;;;;;;;;;;5047019;28;20063;-48
2022/08/16 06:30:17;;;;;;;13.32;10.07;;;;;;;;;;5041753;28;20450;-49
2022/08/16 06:32:48;;;;;;;14.25;9.55;;;;;;;;;;5053549;28;20153;-49
2022/08/16 06:35:22;;;;;;;15.50;10.35;;;;;;;;;;5055240;28;20497;-50
2022/08/16 06:37:52;;;;;;;17.10;11.70;;;;;;;;;;5054572;28;20048;-51
2022/08/16 06:40:23;;;;;;;15.13;10.85;;;;;;;;;;5055726;28;20041;-52
2022/08/16 06:42:52;;;;;;;15.35;11.27;;;;;;;;;;5054942;28;20462;-52
2022/08/16 06:45:20;;;;;;;15.25;10.82;;;;;;;;;;5054732;28;20122;-50
2022/08/16 06:47:47;;;;;;;18.05;11.52;;;;;;;;;;5054845;28;20053;-52
2022/08/16 06:50:29;;;;;;;19.02;10.70;;;;;;;;;;5054930;28;20071;-48
2022/08/16 06:52:57;;;;;;;11.88;10.23;;;;;;;;;;5053607;28;20049;-49
2022/08/16 06:55:30;;;;;;;16.98;10.82;;;;;;;;;;5049962;28;20425;-51
2022/08/16 06:58:11;;;;;;;14.30;11.05;;;;;;;;;;5043824;28;20064;-53
2022/08/16 07:00:51;;;;;;;13.63;9.98;;;;;;;;;;5043372;28;20420;-50
2022/08/16 07:03:21;;;;;;;15.43;11.70;;;;;;;;;;5039226;28;20156;-53
2022/08/16 07:05:51;;;;;;;17.67;11.73;;;;;;;;;;5045142;28;20084;-51
2022/08/16 07:08:18;;;;;;;14.77;11.02;;;;;;;;;;5042960;28;20049;-51
2022/08/16 07:10:46;;;;;;;15.98;10.45;;;;;;;;;;5051776;28;20059;-51
2022/08/16 07:13:15;;;;;;;13.93;11.57;;;;;;;;;;5055343;28;20048;-51
2022/08/16 07:15:42;;;;;;;13.15;10.38;;;;;;;;;;5054868;28;20045;-51
2022/08/16 07:18:14;;;;;;;14.68;11.35;;;;;;;;;;5054907;28;20067;-53
2022/08/16 07:20:41;;;;;;;15.15;9.68;;;;;;;;;;5053921;28;20472;-50
2022/08/16 07:23:19;;;;;;;14.85;10.85;;;;;;;;;;5054112;28;20107;-51
2022/08/16 07:25:48;;;;;;;15.52;10.82;;;;;;;;;;5053960;28;20049;-51
2022/08/16 07:28:20;;;;;;;14.50;10.98;;;;;;;;;;5053409;28;20548;-52
2022/08/16 07:33:30;;;;;;;15.45;11.77;;;;;;;;;;5053109;28;20056;-50
2022/08/16 07:35:57;;;;;;;15.05;10.95;;;;;;;;;;5054131;28;20091;-54
2022/08/16 07:38:26;;;;;;;15.40;12.00;;;;;;;;;;5054885;28;20159;-51
2022/08/16 07:40:54;;;;;;;15.90;11.95;;;;;;;;;;5044957;28;20048;-54
2022/08/16 07:43:24;;;;;;;14.40;10.80;;;;;;;;;;5042692;28;20517;-52
2022/08/16 07:45:51;;;;;;;17.08;10.90;;;;;;;;;;5044046;28;20080;-53
2022/08/16 07:48:19;;;;;;;15.95;11.95;;;;;;;;;;5043429;28;20052;-50
2022/08/16 07:50:49;;;;;;;14.75;11.32;;;;;;;;;;5046667;28;20058;-50
2022/08/16 07:53:17;;;;;;;13.18;10.60;;;;;;;;;;5051083;28;20071;-50
2022/08/16 07:55:49;;;;;;;16.27;12.45;;;;;;;;;;5053575;28;20057;-50
2022/08/16 07:58:19;;;;;;;17.27;12.82;;;;;;;;;;5049662;28;20045;-49
2022/08/16 08:00:50;;;;;;;20.00;12.20;;;;;;;;;;5035551;28;20060;-50
2022/08/16 08:03:19;;;;;;;15.73;12.40;;;;;;;;;;5036943;28;20099;-50
2022/08/16 08:05:49;;;;;;;15.65;12.32;;;;;;;;;;5052855;28;20136;-51
2022/08/16 08:08:17;;;;;;;18.13;12.05;;;;;;;;;;5050048;28;20073;-50
2022/08/16 08:10:49;;;;;;;18.27;11.13;;;;;;;;;;5050896;28;20052;-50
2022/08/16 08:13:18;;;;;;;16.85;11.27;;;;;;;;;;5039285;28;20045;-53
2022/08/16 08:15:48;;;;;;;13.70;10.65;;;;;;;;;;5053120;28;20060;-51
2022/08/16 08:18:18;;;;;;;14.45;10.63;;;;;;;;;;5052955;28;20048;-50
2022/08/16 08:20:48;;;;;;;11.93;9.88;;;;;;;;;;5052115;28;20064;-50
2022/08/16 08:23:15;;;;;;;15.07;10.13;;;;;;;;;;5051528;28;20119;-53
2022/08/16 08:25:43;;;;;;;15.35;10.88;;;;;;;;;;5052932;28;20045;-50
2022/08/16 08:28:14;;;;;;;17.45;11.45;;;;;;;;;;5053678;28;20041;-48
2022/08/16 08:30:49;;;;;;;13.07;11.20;;;;;;;;;;5044286;28;20079;-50
2022/08/16 08:33:17;;;;;;;13.90;9.68;;;;;;;;;;5036974;28;20056;-50
2022/08/16 08:35:45;;;;;;;13.32;10.50;;;;;;;;;;5052550;28;20107;-51
2022/08/16 08:38:15;;;;;;;14.30;9.73;;;;;;;;;;5052160;28;20052;-53
2022/08/16 08:40:46;;;;;;;12.75;10.77;;;;;;;;;;5053512;28;20362;-54
2022/08/16 08:43:16;;;;;;;12.73;9.65;;;;;;;;;;5039755;28;20140;-52
2022/08/16 08:45:45;;;;;;;14.57;11.73;;;;;;;;;;5045970;28;20087;-50
2022/08/16 08:48:13;;;;;;;13.68;11.20;;;;;;;;;;5043808;28;20064;-49
2022/08/16 08:50:41;;;;;;;14.88;10.95;;;;;;;;;;5037772;28;20049;-53
2022/08/16 08:53:09;;;;;;;14.07;11.25;;;;;;;;;;5045140;28;20783;-53
2022/08/16 08:55:39;;;;;;;12.38;9.63;;;;;;;;;;5052630;28;20067;-52
2022/08/16 08:58:05;;;;;;;13.50;9.57;;;;;;;;;;5052625;28;20048;-50
2022/08/16 09:00:47;;;;;;;12.85;9.52;;;;;;;;;;5038307;28;20057;-50
2022/08/16 09:03:23;;;;;;;12.95;10.07;;;;;;;;;;5041670;28;20048;-50
2022/08/16 09:05:51;;;;;;;10.55;9.00;;;;;;;;;;5052856;28;20135;-49
2022/08/16 09:08:20;;;;;;;11.73;9.70;;;;;;;;;;5047899;28;20045;-51
2022/08/16 09:10:50;;;;;;;13.15;9.07;;;;;;;;;;5044690;28;20049;-51
2022/08/16 09:13:19;;;;;;;10.38;8.73;;;;;;;;;;5038852;28;20045;-50
2022/08/16 09:15:55;;;;;;;10.40;9.10;;;;;;;;;;5050040;28;20056;-51
2022/08/16 09:18:26;;;;;;;10.00;8.95;;;;;;;;;;5052739;28;20057;-48
2022/08/16 09:21:05;;;;;;;13.80;8.95;;;;;;;;;;5052154;28;20077;-48
2022/08/16 09:23:34;;;;;;;12.13;9.80;;;;;;;;;;5052780;28;20466;-49
2022/08/16 09:26:03;;;;;;;11.98;9.05;;;;;;;;;;5051584;28;20102;-49
2022/08/16 09:28:33;;;;;;;10.35;8.25;;;;;;;;;;5052112;28;20234;-47
2022/08/16 09:31:11;;;;;;;16.45;9.32;;;;;;;;;;5051098;28;20358;-48
2022/08/16 09:33:38;;;;;;;12.15;9.68;;;;;;;;;;5052605;28;20049;-49
2022/08/16 09:36:06;;;;;;;11.25;8.65;;;;;;;;;;5055258;28;20085;-49
2022/08/16 09:38:34;;;;;;;11.05;8.30;;;;;;;;;;5055729;28;20095;-48
2022/08/16 09:41:04;;;;;;;10.18;8.43;;;;;;;;;;5051387;28;20045;-49
2022/08/16 09:43:35;;;;;;;9.38;7.82;;;;;;;;;;5043896;28;20045;-49
2022/08/16 09:46:10;;;;;;;10.75;7.15;;;;;;;;;;5055233;28;20053;-48
2022/08/16 09:48:40;;;;;;;13.25;8.98;;;;;;;;;;5037625;28;20067;-48
2022/08/16 09:51:17;;;;;;;11.38;7.75;;;;;;;;;;5054526;28;20088;-49
2022/08/16 09:53:46;;;;;;;10.38;7.80;;;;;;;;;;5047991;28;20053;-48
2022/08/16 09:56:17;;;;;;;10.10;7.10;;;;;;;;;;5036026;28;20060;-48
2022/08/16 09:58:45;;;;;;;9.75;8.35;;;;;;;;;;5035214;28;20489;-48
2022/08/16 10:01:15;;;;;;;11.40;7.30;;;;;;;;;;5035455;28;20085;-49
2022/08/16 10:03:45;;;;;;;9.95;8.23;;;;;;;;;;5035344;28;20104;-48
2022/08/16 10:06:26;;;;;;;13.02;9.13;;;;;;;;;;5046188;28;20130;-49
2022/08/16 10:08:57;;;;;;;9.40;7.28;;;;;;;;;;5045272;28;20057;-47
2022/08/16 10:14:11;;;;;;;9.57;8.00;;;;;;;;;;5050036;28;20044;-48
2022/08/16 10:16:44;;;;;;;14.65;8.30;;;;;;;;;;5052274;28;20143;-50
2022/08/16 10:19:12;;;;;;;14.10;7.90;;;;;;;;;;5054559;28;20613;-49
2022/08/16 10:21:43;;;;;;;13.32;8.05;;;;;;;;;;5053691;28;20056;-52
2022/08/16 10:24:10;;;;;;;12.65;8.00;;;;;;;;;;5050329;28;20094;-49
2022/08/16 10:26:40;;;;;;;8.05;7.22;;;;;;;;;;5049408;28;20385;-49
2022/08/16 10:29:09;;;;;;;12.27;7.72;;;;;;;;;;5051246;28;20118;-49
2022/08/16 10:31:53;;;;;;;10.55;7.47;;;;;;;;;;5045340;28;20052;-49
2022/08/16 10:34:20;;;;;;;9.20;7.47;;;;;;;;;;5043761;28;20087;-48
2022/08/16 10:36:47;;;;;;;14.77;7.82;;;;;;;;;;5047140;28;20180;-49
2022/08/16 10:39:13;;;;;;;11.70;8.57;;;;;;;;;;5044107;28;20055;-48
2022/08/16 10:41:42;;;;;;;11.30;8.10;;;;;;;;;;5050213;28;20088;-48
2022/08/16 10:44:13;;;;;;;10.07;7.85;;;;;;;;;;5049736;28;20046;-47
2022/08/16 10:46:48;;;;;;;10.32;6.80;;;;;;;;;;5036058;28;20049;-48
2022/08/16 10:49:17;;;;;;;10.68;7.25;;;;;;;;;;5042896;28;20060;-49
2022/08/16 10:51:45;;;;;;;13.50;7.13;;;;;;;;;;5047094;28;20064;-49
2022/08/16 10:54:13;;;;;;;11.95;7.28;;;;;;;;;;5054538;28;20045;-49
2022/08/16 10:56:52;;;;;;;8.77;6.70;;;;;;;;;;5054620;28;20056;-51
2022/08/16 10:59:23;;;;;;;11.20;8.07;;;;;;;;;;5054562;28;20474;-50
2022/08/16 11:01:53;;;;;;;11.98;8.18;;;;;;;;;;5054714;28;20421;-48
2022/08/16 11:04:21;;;;;;;13.10;7.32;;;;;;;;;;5038989;28;20046;-48
2022/08/16 11:06:49;;;;;;;10.55;7.15;;;;;;;;;;5053997;28;20068;-48
2022/08/16 11:09:19;;;;;;;12.90;7.22;;;;;;;;;;5043433;28;20049;-48
2022/08/16 11:11:49;;;;;;;11.38;7.57;;;;;;;;;;5054738;28;20142;-48
2022/08/16 11:14:19;;;;;;;11.43;8.02;;;;;;;;;;5051064;28;20177;-48
2022/08/16 11:16:50;;;;;;;9.10;7.40;;;;;;;;;;5054796;28;20049;-50
2022/08/16 11:19:33;;;;;;;15.02;8.50;;;;;;;;;;5050939;28;20131;-48
2022/08/16 11:22:00;;;;;;;7.88;7.07;;;;;;;;;;5053676;28;20123;-49
2022/08/16 11:24:30;;;;;;;10.70;7.65;;;;;;;;;;5053543;28;20053;-53
2022/08/16 11:26:56;;;;;;;10.98;7.32;;;;;;;;;;5054053;28;20067;-49
2022/08/16 11:29:33;;;;;;;8.70;7.82;;;;;;;;;;5053771;28;20075;-50
2022/08/16 11:32:04;;;;;;;7.85;6.80;;;;;;;;;;5054023;28;20106;-48
2022/08/16 11:34:45;;;;;;;9.43;6.55;;;;;;;;;;5054168;28;20045;-49
2022/08/16 11:37:15;;;;;;;8.82;7.30;;;;;;;;;;5055320;28;20045;-52
2022/08/16 11:39:42;;;;;;;8.55;7.43;;;;;;;;;;5057677;28;20059;-54
2022/08/16 11:42:11;;;;;;;8.70;6.97;;;;;;;;;;5050148;28;20068;-50
2022/08/16 11:47:20;;;;;;;9.57;7.65;;;;;;;;;;5052870;28;20052;-48
2022/08/16 11:49:53;;;;;;;15.77;7.70;;;;;;;;;;5052578;28;20545;-50
2022/08/16 11:52:22;;;;;;;9.73;7.53;;;;;;;;;;5053243;28;20049;-49
2022/08/16 11:54:50;;;;;;;14.38;7.53;;;;;;;;;;5053567;28;20056;-49
2022/08/16 11:57:18;;;;;;;7.22;6.38;;;;;;;;;;5052279;28;20067;-49
2022/08/16 11:59:48;;;;;;;8.23;6.13;;;;;;;;;;5053198;28;20781;-49
2022/08/16 12:02:16;;;;;;;10.15;6.88;;;;;;;;;;5053691;28;20052;-51
2022/08/16 12:04:43;;;;;;;8.07;6.30;;;;;;;;;;5048074;28;20042;-50
2022/08/16 12:07:17;;;;;;;12.65;7.47;;;;;;;;;;5048784;28;20060;-51
2022/08/16 12:09:47;;;;;;;9.20;7.15;;;;;;;;;;5053370;28;20049;-52
2022/08/16 12:12:14;;;;;;;8.65;6.60;;;;;;;;;;5052138;28;20057;-51
2022/08/16 12:14:43;;;;;;;7.00;6.07;;;;;;;;;;5053085;28;20047;-50
2022/08/16 12:17:13;;;;;;;8.85;6.82;;;;;;;;;;5053247;28;20049;-50
2022/08/16 12:19:42;;;;;;;8.57;7.07;;;;;;;;;;5053615;28;20461;-50
2022/08/16 12:22:19;;;;;;;8.50;6.45;;;;;;;;;;5053221;28;20053;-53
2022/08/16 12:24:47;;;;;;;11.07;6.55;;;;;;;;;;5053398;28;20044;-49
2022/08/16 12:27:17;;;;;;;12.38;7.32;;;;;;;;;;5041610;28;20055;-51
2022/08/16 12:29:44;;;;;;;8.45;6.93;;;;;;;;;;5051585;28;20061;-49
2022/08/16 12:32:12;;;;;;;13.68;7.68;;;;;;;;;;5043804;28;20045;-50
2022/08/16 12:34:41;;;;;;;11.35;8.50;;;;;;;;;;5048322;28;20114;-50
2022/08/16 12:37:07;;;;;;;7.65;6.25;;;;;;;;;;5052530;28;20075;-53
2022/08/16 12:39:45;;;;;;;8.95;7.00;;;;;;;;;;5044536;28;20049;-49
2022/08/16 12:42:13;;;;;;;9.95;6.72;;;;;;;;;;5053906;28;20052;-50
2022/08/16 12:44:43;;;;;;;8.88;6.63;;;;;;;;;;5054092;28;20053;-49
2022/08/16 12:49:56;;;;;;;10.20;7.40;;;;;;;;;;5041363;28;20075;-49
2022/08/16 12:52:24;;;;;;;7.63;6.40;;;;;;;;;;5053191;28;20519;-50
2022/08/16 12:54:54;;;;;;;8.57;5.97;;;;;;;;;;5051578;28;20382;-49
2022/08/16 12:57:22;;;;;;;9.63;7.25;;;;;;;;;;5052643;28;20420;-48
2022/08/16 12:59:50;;;;;;;11.57;7.68;;;;;;;;;;5049460;28;20041;-49
2022/08/16 13:02:26;;;;;;;10.45;7.43;;;;;;;;;;5042988;28;20052;-53
2022/08/16 13:04:54;;;;;;;9.55;7.15;;;;;;;;;;5041438;28;20106;-49
2022/08/16 13:07:24;;;;;;;11.38;7.88;;;;;;;;;;5052374;28;20377;-52
2022/08/16 13:10:07;;;;;;;9.10;6.57;;;;;;;;;;5045061;28;20087;-48
2022/08/16 13:12:37;;;;;;;11.60;6.57;;;;;;;;;;5051323;28;20420;-49
2022/08/16 13:15:11;;;;;;;10.80;7.03;;;;;;;;;;5056777;28;20136;-49
2022/08/16 13:17:40;;;;;;;8.93;6.82;;;;;;;;;;5054430;28;20138;-53
2022/08/16 13:20:11;;;;;;;9.10;6.90;;;;;;;;;;5056109;28;20065;-50
2022/08/16 13:22:40;;;;;;;15.65;8.10;;;;;;;;;;5050136;28;20520;-48
2022/08/16 13:25:14;;;;;;;8.25;6.82;;;;;;;;;;5050607;28;20059;-50
2022/08/16 13:27:42;;;;;;;9.30;6.57;;;;;;;;;;5039918;28;20049;-50
2022/08/16 13:30:09;;;;;;;16.75;7.75;;;;;;;;;;5044505;28;20545;-50
2022/08/16 13:32:38;;;;;;;9.80;7.00;;;;;;;;;;5054599;28;20139;-50
2022/08/16 13:35:08;;;;;;;12.02;7.13;;;;;;;;;;5048602;28;20061;-50
2022/08/16 13:37:35;;;;;;;11.77;7.35;;;;;;;;;;5049039;28;20084;-49
2022/08/16 13:40:04;;;;;;;9.57;6.40;;;;;;;;;;5054095;28;20056;-52
2022/08/16 13:42:34;;;;;;;11.90;6.70;;;;;;;;;;5054822;28;20107;-50
2022/08/16 13:45:00;;;;;;;9.45;6.65;;;;;;;;;;5055645;28;20167;-52
2022/08/16 13:47:31;;;;;;;15.15;6.93;;;;;;;;;;5055215;28;20067;-50
2022/08/16 13:50:04;;;;;;;10.13;7.00;;;;;;;;;;5050073;28;20057;-49
2022/08/16 13:52:34;;;;;;;9.85;6.80;;;;;;;;;;5055453;28;20051;-49
2022/08/16 13:55:02;;;;;;;12.68;6.75;;;;;;;;;;5053271;28;20045;-49
2022/08/16 13:57:28;;;;;;;10.10;6.78;;;;;;;;;;5055756;28;20071;-49
2022/08/16 14:02:38;;;;;;;9.07;6.53;;;;;;;;;;5048456;28;20072;-48
2022/08/16 14:05:07;;;;;;;8.15;5.93;;;;;;;;;;5038338;28;20056;-48
2022/08/16 14:07:37;;;;;;;11.93;6.15;;;;;;;;;;5054292;28;20063;-49
2022/08/16 14:10:07;;;;;;;12.02;6.25;;;;;;;;;;5047103;28;20053;-48
2022/08/16 14:12:44;;;;;;;12.43;7.03;;;;;;;;;;5055107;28;20477;-48
2022/08/16 14:15:15;;;;;;;12.20;7.07;;;;;;;;;;5044503;28;20476;-49
2022/08/16 14:17:43;;;;;;;9.77;7.05;;;;;;;;;;5055230;28;20136;-48
2022/08/16 14:20:13;;;;;;;8.38;5.95;;;;;;;;;;5055561;28;20059;-48
2022/08/16 14:22:44;;;;;;;9.13;6.20;;;;;;;;;;5055638;28;20049;-49
2022/08/16 14:25:15;;;;;;;7.40;5.75;;;;;;;;;;5050534;28;20130;-51
2022/08/16 14:27:45;;;;;;;11.75;6.25;;;;;;;;;;5055034;28;20413;-48
2022/08/16 14:30:19;;;;;;;5.93;5.13;;;;;;;;;;5054043;28;20147;-48
2022/08/16 14:32:48;;;;;;;9.40;5.95;;;;;;;;;;5051743;28;20057;-50
2022/08/16 14:35:18;;;;;;;8.88;5.35;;;;;;;;;;5043346;28;20041;-53
2022/08/16 14:37:44;;;;;;;5.85;4.53;;;;;;;;;;5055192;28;20140;-51
2022/08/16 14:40:15;;;;;;;7.60;5.47;;;;;;;;;;5053461;28;20145;-51
2022/08/16 14:42:44;;;;;;;6.20;4.78;;;;;;;;;;5053883;28;20048;-52
2022/08/16 14:45:12;;;;;;;9.18;5.40;;;;;;;;;;5048093;28;20040;-51
2022/08/16 14:47:48;;;;;;;10.30;5.53;;;;;;;;;;5047252;28;20059;-51
2022/08/16 14:50:25;;;;;;;7.18;5.38;;;;;;;;;;5049182;28;20058;-51
2022/08/16 14:52:53;;;;;;;5.82;4.78;;;;;;;;;;5055797;28;20060;-52
2022/08/16 14:55:25;;;;;;;10.27;5.45;;;;;;;;;;5054578;28;20462;-51
2022/08/16 14:57:55;;;;;;;14.82;6.30;;;;;;;;;;5054966;28;20136;-51
2022/08/16 15:00:25;;;;;;;15.20;6.60;;;;;;;;;;5054861;28;20049;-51